Time;durP1;ratioP1;P1;durP2;ratioP2;P2;SDS_P1;SDS_P2;PMS_P1;PMS_P2;Temp;Humidity;BMP_temperature;BMP_pressure;BME280_temperature;BME280_humidity;BME280_pressure;Samples;Min_cycle;Max_cycle;Signal;HPM_P1;HPM_P2
2022/03/28 00:00:16;;;;;;;19.40;10.13;;;205.60;947.20;;;;;;4991472;28;20535;-75
2022/03/28 00:02:44;;;;;;;16.52;8.80;;;230.40;947.20;;;;;;4973864;28;20041;-76
2022/03/28 00:05:14;;;;;;;16.73;8.63;;;230.50;947.20;;;;;;4981678;28;20038;-76
2022/03/28 00:07:42;;;;;;;18.80;10.10;;;230.40;972.80;;;;;;5011563;28;20022;-76
2022/03/28 00:10:09;;;;;;;24.55;11.18;;;205.60;1024.00;;;;;;5011323;28;20474;-75
2022/03/28 00:12:37;;;;;;;22.00;9.68;;;205.70;1024.00;;;;;;4992258;28;20138;-75
2022/03/28 00:15:03;;;;;;;23.00;8.98;;;205.40;1024.00;;;;;;4992741;28;20402;-74
2022/03/28 00:17:31;;;;;;;15.80;7.65;;;205.40;1024.00;;;;;;5010154;28;20069;-75
2022/03/28 00:19:57;;;;;;;16.75;10.95;;;205.40;998.40;;;;;;4993050;28;20061;-75
2022/03/28 00:22:23;;;;;;;17.33;8.65;;;205.50;998.40;;;;;;4992784;28;20061;-75
2022/03/28 00:24:48;;;;;;;19.30;8.75;;;205.60;998.40;;;;;;5010524;28;20105;-75
2022/03/28 00:27:14;;;;;;;31.77;8.63;;;205.60;998.40;;;;;;5010696;28;20983;-74
2022/03/28 00:29:40;;;;;;;15.38;7.72;;;205.60;998.40;;;;;;5010144;28;20026;-75
2022/03/28 00:32:06;;;;;;;16.48;8.52;;;205.60;1024.00;;;;;;4993628;28;20030;-74
2022/03/28 00:34:32;;;;;;;19.40;8.45;;;205.50;1024.00;;;;;;5003641;28;20027;-75
2022/03/28 00:36:57;;;;;;;21.45;8.88;;;205.40;1049.60;;;;;;4976479;28;20041;-75
2022/03/28 00:39:23;;;;;;;15.80;9.45;;;205.40;1024.00;;;;;;4993878;28;20026;-75
2022/03/28 00:41:51;;;;;;;25.17;9.05;;;205.50;1049.60;;;;;;4994283;28;20554;-75
2022/03/28 00:44:17;;;;;;;17.98;8.73;;;205.50;1075.20;;;;;;4975915;28;20046;-75
2022/03/28 00:46:43;;;;;;;20.98;9.10;;;205.50;1075.20;;;;;;4994014;28;20105;-75
2022/03/28 00:49:09;;;;;;;15.38;9.32;;;205.50;1049.60;;;;;;5008315;28;20097;-75
2022/03/28 00:51:36;;;;;;;19.48;9.00;;;205.60;1024.00;;;;;;5013265;28;20533;-75
2022/03/28 00:54:04;;;;;;;17.33;7.78;;;205.70;1024.00;;;;;;4990078;28;20034;-76
2022/03/28 00:56:31;;;;;;;16.65;8.70;;;230.40;998.40;;;;;;4975436;28;20121;-75
2022/03/28 00:58:58;;;;;;;30.25;12.63;;;205.70;1024.00;;;;;;4975517;28;20192;-75
2022/03/28 01:01:25;;;;;;;21.23;9.93;;;205.50;1049.60;;;;;;4991463;28;20399;-75
2022/03/28 01:03:51;;;;;;;23.02;9.70;;;205.30;1075.20;;;;;;5013547;28;20176;-75
2022/03/28 01:06:17;;;;;;;28.48;13.63;;;205.20;1049.60;;;;;;4994307;28;20462;-75
2022/03/28 01:08:42;;;;;;;25.23;13.85;;;205.00;1126.40;;;;;;5001739;28;20029;-75
2022/03/28 01:11:12;;;;;;;21.90;11.43;;;205.00;1152.00;;;;;;4935226;28;1192008;-75
2022/03/28 01:13:41;;;;;;;21.75;12.23;;;205.10;1126.40;;;;;;5012622;28;20763;-75
2022/03/28 01:16:08;;;;;;;18.80;10.23;;;205.20;1126.40;;;;;;4989797;28;20038;-76
2022/03/28 01:18:34;;;;;;;20.45;9.93;;;205.20;1126.40;;;;;;4987270;28;20030;-75
2022/03/28 01:21:01;;;;;;;18.58;10.07;;;205.10;1100.80;;;;;;5007232;28;20113;-76
2022/03/28 01:23:27;;;;;;;30.90;10.57;;;205.10;1126.40;;;;;;5012995;28;20026;-76
2022/03/28 01:25:54;;;;;;;18.15;9.88;;;205.00;1152.00;;;;;;4996214;28;20030;-76
2022/03/28 01:28:22;;;;;;;17.50;10.88;;;205.00;1152.00;;;;;;4995192;28;20033;-76
2022/03/28 01:30:48;;;;;;;19.52;10.50;;;205.20;1152.00;;;;;;4996112;28;20437;-76
2022/03/28 01:33:14;;;;;;;20.73;11.43;;;205.10;1177.60;;;;;;5014032;28;20030;-76
2022/03/28 01:35:42;;;;;;;19.52;12.40;;;205.00;1203.20;;;;;;4996370;28;20065;-75
2022/03/28 01:38:13;;;;;;;24.42;13.15;;;204.90;1228.80;;;;;;4996212;28;20045;-75
2022/03/28 01:40:42;;;;;;;28.50;13.02;;;204.80;1203.20;;;;;;5000317;28;20045;-77
2022/03/28 01:43:07;;;;;;;27.15;13.63;;;180.00;1228.80;;;;;;4975945;28;20057;-76
2022/03/28 01:45:33;;;;;;;24.20;11.45;;;179.90;1254.40;;;;;;4994379;28;20399;-77
2022/03/28 01:47:59;;;;;;;25.73;11.95;;;180.00;1254.40;;;;;;5003427;28;20119;-77
2022/03/28 01:50:25;;;;;;;19.67;10.98;;;180.00;1254.40;;;;;;5005032;28;20085;-76
2022/03/28 01:52:51;;;;;;;17.55;10.60;;;180.00;1254.40;;;;;;5006941;28;20029;-76
2022/03/28 01:55:17;;;;;;;23.33;11.52;;;180.00;1254.40;;;;;;4996526;28;20034;-77
2022/03/28 01:57:44;;;;;;;21.27;11.00;;;180.00;1254.40;;;;;;5010750;28;20057;-78
2022/03/28 02:00:15;;;;;;;18.63;11.82;;;180.00;1254.40;;;;;;5000951;28;20025;-78
2022/03/28 02:02:42;;;;;;;23.98;13.13;;;180.00;1280.00;;;;;;4995079;28;20069;-77
2022/03/28 02:05:12;;;;;;;19.73;11.15;;;179.90;1280.00;;;;;;4994957;28;20136;-77
2022/03/28 02:07:42;;;;;;;24.13;11.77;;;179.90;1280.00;;;;;;4977649;28;20125;-76
2022/03/28 02:10:10;;;;;;;30.70;13.18;;;179.90;1280.00;;;;;;5009588;28;20038;-77
2022/03/28 02:12:36;;;;;;;25.67;13.32;;;179.90;1280.00;;;;;;4999222;28;20153;-76
2022/03/28 02:15:03;;;;;;;25.27;13.60;;;179.90;1280.00;;;;;;5003678;28;20038;-76
2022/03/28 02:17:31;;;;;;;22.40;12.70;;;179.90;1280.00;;;;;;5004805;28;20113;-76
2022/03/28 02:19:57;;;;;;;25.27;13.23;;;179.80;1254.40;;;;;;4978705;28;20619;-75
2022/03/28 02:22:23;;;;;;;20.10;11.45;;;179.80;1254.40;;;;;;4993896;28;20065;-79
2022/03/28 02:24:49;;;;;;;20.40;13.18;;;179.80;1228.80;;;;;;4975593;28;20054;-79
2022/03/28 02:27:16;;;;;;;21.42;11.02;;;179.60;1254.40;;;;;;4994121;28;20435;-78
2022/03/28 02:29:41;;;;;;;23.70;12.35;;;179.40;1280.00;;;;;;4993686;28;20499;-77
2022/03/28 02:32:08;;;;;;;22.60;11.77;;;179.40;1280.00;;;;;;4993696;28;20029;-77
2022/03/28 02:34:33;;;;;;;26.05;12.45;;;179.40;1280.00;;;;;;4992109;28;20035;-77
2022/03/28 02:36:59;;;;;;;28.13;13.60;;;179.40;1280.00;;;;;;4993727;28;20073;-77
2022/03/28 02:39:25;;;;;;;26.27;14.25;;;179.30;1305.60;;;;;;4992679;28;20372;-76
2022/03/28 02:41:52;;;;;;;24.83;13.43;;;179.30;1331.20;;;;;;5012912;28;20029;-76
2022/03/28 02:44:18;;;;;;;28.60;13.95;;;179.40;1331.20;;;;;;4995148;28;20041;-76
2022/03/28 02:46:46;;;;;;;27.35;14.75;;;179.40;1331.20;;;;;;4994768;28;20502;-76
2022/03/28 02:49:13;;;;;;;29.40;12.70;;;179.30;1305.60;;;;;;4993479;28;20045;-76
2022/03/28 02:51:39;;;;;;;21.77;12.35;;;179.40;1305.60;;;;;;4995620;28;20023;-76
2022/03/28 02:54:06;;;;;;;29.67;13.32;;;179.40;1305.60;;;;;;5013078;28;20025;-76
2022/03/28 02:56:32;;;;;;;29.23;14.02;;;179.30;1331.20;;;;;;4995145;28;20429;-76
2022/03/28 02:58:59;;;;;;;29.20;14.13;;;179.30;1331.20;;;;;;5013349;28;20092;-76
2022/03/28 03:01:25;;;;;;;22.73;12.70;;;154.50;1331.20;;;;;;5012798;28;20080;-76
2022/03/28 03:03:50;;;;;;;25.67;12.63;;;154.50;1356.80;;;;;;4985095;28;20511;-76
2022/03/28 03:06:16;;;;;;;25.50;14.20;;;154.50;1305.60;;;;;;4991274;28;20144;-76
2022/03/28 03:08:42;;;;;;;30.45;13.02;;;154.50;1331.20;;;;;;4992986;28;20487;-76
2022/03/28 03:11:09;;;;;;;27.63;14.25;;;154.50;1331.20;;;;;;4975397;28;20057;-76
2022/03/28 03:13:36;;;;;;;24.98;13.55;;;154.50;1356.80;;;;;;4992705;28;20561;-76
2022/03/28 03:16:03;;;;;;;21.80;13.63;;;154.50;1356.80;;;;;;4993207;28;20035;-76
2022/03/28 03:18:29;;;;;;;25.23;12.15;;;154.50;1331.20;;;;;;4989288;28;20041;-76
2022/03/28 03:20:55;;;;;;;23.38;13.73;;;179.20;1331.20;;;;;;4994186;28;20038;-77
2022/03/28 03:23:21;;;;;;;22.50;12.30;;;154.50;1356.80;;;;;;4994854;28;20121;-76
2022/03/28 03:25:46;;;;;;;21.77;12.80;;;154.50;1356.80;;;;;;4975151;28;20062;-76
2022/03/28 03:28:12;;;;;;;24.10;12.32;;;154.50;1356.80;;;;;;4981991;28;20034;-76
2022/03/28 03:30:39;;;;;;;24.95;12.10;;;154.50;1331.20;;;;;;4984933;28;20074;-78
2022/03/28 03:33:07;;;;;;;23.67;13.00;;;154.50;1356.80;;;;;;4993298;28;20026;-79
2022/03/28 03:35:33;;;;;;;28.77;15.73;;;154.50;1356.80;;;;;;4991535;28;20053;-78
2022/03/28 03:37:59;;;;;;;32.10;17.45;;;154.40;1356.80;;;;;;4991274;28;20109;-77
2022/03/28 03:40:24;;;;;;;32.67;16.30;;;154.40;1356.80;;;;;;4991135;28;20491;-77
2022/03/28 03:42:50;;;;;;;26.20;14.93;;;154.40;1408.00;;;;;;4993225;28;20026;-77
2022/03/28 03:45:16;;;;;;;30.85;15.63;;;154.40;1408.00;;;;;;4992945;28;20022;-76
2022/03/28 03:47:42;;;;;;;35.60;16.88;;;154.30;1408.00;;;;;;4999001;28;20117;-75
2022/03/28 03:50:09;;;;;;;34.13;18.08;;;154.30;1408.00;;;;;;4994315;28;20399;-76
2022/03/28 03:52:34;;;;;;;27.67;16.50;;;154.30;1382.40;;;;;;5012680;28;20025;-76
2022/03/28 03:55:00;;;;;;;33.97;17.05;;;154.30;1408.00;;;;;;4994761;28;20105;-77
2022/03/28 03:57:26;;;;;;;28.20;16.33;;;154.20;1408.00;;;;;;5013123;28;20026;-79
2022/03/28 03:59:52;;;;;;;37.38;19.05;;;154.20;1433.60;;;;;;4983476;28;20030;-76
2022/03/28 04:02:18;;;;;;;29.63;16.65;;;154.20;1408.00;;;;;;4998824;28;20034;-77
2022/03/28 04:04:43;;;;;;;34.60;17.38;;;154.20;1408.00;;;;;;4994775;28;20567;-77
2022/03/28 04:07:09;;;;;;;31.88;16.65;;;154.20;1382.40;;;;;;5016954;28;20026;-76
2022/03/28 04:09:35;;;;;;;26.00;15.55;;;154.20;1382.40;;;;;;5002808;28;20025;-76
2022/03/28 04:12:01;;;;;;;34.85;16.65;;;154.20;1408.00;;;;;;5017944;28;20052;-76
2022/03/28 04:14:27;;;;;;;32.20;15.32;;;154.20;1408.00;;;;;;5016770;28;20080;-76
2022/03/28 04:16:53;;;;;;;26.05;13.18;;;154.20;1356.80;;;;;;4997304;28;20128;-77
2022/03/28 04:19:20;;;;;;;25.10;13.60;;;154.20;1356.80;;;;;;5000162;28;20037;-79
2022/03/28 04:21:46;;;;;;;32.03;13.95;;;154.10;1356.80;;;;;;4990271;28;20063;-76
2022/03/28 04:24:12;;;;;;;34.97;16.35;;;154.10;1331.20;;;;;;5014471;28;20122;-77
2022/03/28 04:26:38;;;;;;;32.58;17.35;;;154.10;1356.80;;;;;;5016245;28;20050;-76
2022/03/28 04:29:04;;;;;;;30.23;15.45;;;154.00;1331.20;;;;;;5016123;28;20022;-78
2022/03/28 04:31:29;;;;;;;32.83;15.23;;;154.00;1331.20;;;;;;5016457;28;20402;-77
2022/03/28 04:33:55;;;;;;;22.75;11.30;;;154.00;1331.20;;;;;;5014705;28;20491;-77
2022/03/28 04:36:23;;;;;;;19.85;9.10;;;153.80;1305.60;;;;;;5016568;28;20052;-77
2022/03/28 04:38:49;;;;;;;18.50;8.35;;;153.70;1280.00;;;;;;4997592;28;20037;-77
2022/03/28 04:41:15;;;;;;;18.27;9.45;;;153.60;1254.40;;;;;;4999624;28;20372;-77
2022/03/28 04:43:41;;;;;;;25.65;8.40;;;153.60;1254.40;;;;;;4997534;28;20471;-77
2022/03/28 04:46:07;;;;;;;20.92;9.43;;;128.90;1254.40;;;;;;4998836;28;20049;-76
2022/03/28 04:48:33;;;;;;;12.80;7.05;;;128.70;1228.80;;;;;;5001562;28;20434;-77
2022/03/28 04:50:58;;;;;;;16.23;8.75;;;128.60;1228.80;;;;;;5000049;28;20022;-77
2022/03/28 04:53:24;;;;;;;15.55;7.18;;;128.60;1254.40;;;;;;5005591;28;20121;-77
2022/03/28 04:55:50;;;;;;;14.80;8.00;;;128.60;1254.40;;;;;;5002843;28;20502;-77
2022/03/28 04:58:16;;;;;;;18.52;8.07;;;128.60;1254.40;;;;;;4986893;28;20021;-77
2022/03/28 05:00:42;;;;;;;16.75;7.82;;;128.50;1254.40;;;;;;5000567;28;20018;-77
2022/03/28 05:03:08;;;;;;;20.85;8.18;;;128.40;1254.40;;;;;;5002382;28;20030;-77
2022/03/28 05:05:34;;;;;;;14.35;7.90;;;128.50;1254.40;;;;;;5003993;28;20578;-77
2022/03/28 05:08:00;;;;;;;20.00;9.10;;;128.50;1254.40;;;;;;4988936;28;20026;-78
2022/03/28 05:10:25;;;;;;;12.10;6.82;;;128.50;1254.40;;;;;;5006336;28;20038;-78
2022/03/28 05:12:51;;;;;;;14.32;7.53;;;128.60;1254.40;;;;;;5007916;28;20037;-77
2022/03/28 05:15:17;;;;;;;19.27;7.25;;;128.70;1254.40;;;;;;5004049;28;20030;-77
2022/03/28 05:17:43;;;;;;;17.17;7.53;;;128.70;1254.40;;;;;;5006480;28;20021;-77
2022/03/28 05:20:09;;;;;;;17.20;7.80;;;128.80;1254.40;;;;;;4998354;28;20030;-78
2022/03/28 05:22:35;;;;;;;19.98;9.70;;;128.90;1254.40;;;;;;5006405;28;20069;-77
2022/03/28 05:25:02;;;;;;;16.48;7.65;;;153.60;1254.40;;;;;;4978429;28;20026;-78
2022/03/28 05:27:28;;;;;;;25.27;9.48;;;153.60;1254.40;;;;;;4977714;28;20120;-77
2022/03/28 05:29:54;;;;;;;16.35;8.48;;;153.60;1228.80;;;;;;5008953;28;20101;-77
2022/03/28 05:32:20;;;;;;;20.70;9.02;;;153.70;1228.80;;;;;;4995481;28;20387;-77
2022/03/28 05:34:46;;;;;;;33.67;10.88;;;153.80;1254.40;;;;;;4996101;28;20441;-77
2022/03/28 05:37:14;;;;;;;29.38;9.63;;;153.90;1254.40;;;;;;4995440;28;20573;-77
2022/03/28 05:39:41;;;;;;;24.88;10.07;;;154.00;1254.40;;;;;;4977706;28;20043;-77
2022/03/28 05:42:07;;;;;;;39.20;9.60;;;154.10;1228.80;;;;;;4995677;28;20026;-77
2022/03/28 05:44:34;;;;;;;26.33;10.77;;;154.30;1228.80;;;;;;4995455;28;20501;-77
2022/03/28 05:47:00;;;;;;;19.13;8.27;;;154.30;1228.80;;;;;;4997167;28;20109;-76
2022/03/28 05:49:25;;;;;;;26.35;8.25;;;154.30;1228.80;;;;;;5014910;28;20049;-77
2022/03/28 05:51:52;;;;;;;21.75;9.77;;;154.40;1254.40;;;;;;5014672;28;20098;-77
2022/03/28 05:54:19;;;;;;;26.67;8.82;;;154.50;1254.40;;;;;;4997009;28;20410;-77
2022/03/28 05:56:45;;;;;;;21.70;8.73;;;179.30;1254.40;;;;;;4996749;28;20128;-77
2022/03/28 05:59:11;;;;;;;14.77;8.00;;;179.40;1228.80;;;;;;5014129;28;20057;-76
2022/03/28 06:01:37;;;;;;;30.17;7.78;;;179.50;1228.80;;;;;;4994604;28;20529;-76
2022/03/28 06:04:07;;;;;;;17.50;8.25;;;179.60;1228.80;;;;;;5000162;28;20395;-77
2022/03/28 06:06:33;;;;;;;17.92;9.80;;;179.70;1228.80;;;;;;4994616;28;20101;-76
2022/03/28 06:09:00;;;;;;;24.45;10.27;;;179.80;1228.80;;;;;;4993542;28;20445;-76
2022/03/28 06:11:26;;;;;;;24.88;10.85;;;180.00;1228.80;;;;;;4991939;28;20046;-76
2022/03/28 06:13:53;;;;;;;20.92;10.02;;;204.80;1228.80;;;;;;4993962;28;20154;-76
2022/03/28 06:16:19;;;;;;;23.48;9.82;;;204.90;1228.80;;;;;;4983413;28;20018;-77
2022/03/28 06:18:45;;;;;;;20.35;9.65;;;205.20;1228.80;;;;;;4994872;28;20030;-77
2022/03/28 06:21:11;;;;;;;18.80;8.68;;;205.40;1203.20;;;;;;4991202;28;20042;-78
2022/03/28 06:23:37;;;;;;;26.70;10.07;;;205.60;1177.60;;;;;;4993257;28;20038;-77
2022/03/28 06:26:03;;;;;;;20.38;8.10;;;230.50;1152.00;;;;;;4991446;28;20092;-77
2022/03/28 06:28:29;;;;;;;13.05;7.22;;;230.70;1126.40;;;;;;4988099;28;20030;-76
2022/03/28 06:30:55;;;;;;;20.50;8.32;;;231.00;1126.40;;;;;;4985492;28;20487;-76
2022/03/28 06:33:21;;;;;;;16.67;8.27;;;231.20;1126.40;;;;;;4985801;28;20542;-79
2022/03/28 06:35:47;;;;;;;18.35;8.13;;;256.10;1152.00;;;;;;4997512;28;20036;-78
2022/03/28 06:38:13;;;;;;;16.73;7.00;;;256.60;1152.00;;;;;;4985570;28;20034;-80
2022/03/28 06:40:39;;;;;;;15.15;7.30;;;256.90;1100.80;;;;;;4983862;28;20042;-77
2022/03/28 06:43:05;;;;;;;17.20;7.50;;;281.80;1100.80;;;;;;5004370;28;20046;-76
2022/03/28 06:45:32;;;;;;;16.92;7.13;;;282.30;1100.80;;;;;;5006525;28;20542;-76
2022/03/28 06:47:57;;;;;;;13.68;6.32;;;307.30;1075.20;;;;;;4999686;28;20042;-76
2022/03/28 06:50:25;;;;;;;11.10;6.05;;;307.50;1049.60;;;;;;4986447;28;20487;-76
2022/03/28 06:52:52;;;;;;;12.15;6.43;;;307.80;1024.00;;;;;;5000407;28;20097;-77
2022/03/28 06:55:19;;;;;;;18.08;6.40;;;307.90;1024.00;;;;;;4981606;28;20044;-76
2022/03/28 06:57:45;;;;;;;15.98;7.80;;;332.90;1049.60;;;;;;4999415;28;20019;-77
2022/03/28 07:00:11;;;;;;;10.32;5.85;;;333.10;1049.60;;;;;;5000874;28;20109;-76
2022/03/28 07:02:37;;;;;;;29.80;8.50;;;333.30;1049.60;;;;;;4980156;28;20038;-76
2022/03/28 07:05:07;;;;;;;19.25;7.63;;;333.50;1049.60;;;;;;5002815;28;20026;-77
2022/03/28 07:07:43;;;;;;;14.20;7.25;;;333.70;1075.20;;;;;;4983717;28;20069;-78
2022/03/28 07:10:13;;;;;;;18.55;7.85;;;358.60;1075.20;;;;;;4980426;28;20115;-76
2022/03/28 07:12:39;;;;;;;18.63;9.10;;;358.80;1100.80;;;;;;4987407;28;20459;-76
2022/03/28 07:15:06;;;;;;;24.35;11.15;;;359.00;1075.20;;;;;;4980676;28;20106;-77
2022/03/28 07:17:43;;;;;;;19.88;9.00;;;359.20;1100.80;;;;;;4981735;28;20042;-78
2022/03/28 07:20:10;;;;;;;18.85;10.57;;;384.00;1075.20;;;;;;4965284;28;20038;-77
2022/03/28 07:22:36;;;;;;;26.27;9.48;;;384.00;1100.80;;;;;;4966504;28;20026;-75
2022/03/28 07:25:02;;;;;;;25.95;11.88;;;384.10;1100.80;;;;;;4983516;28;20030;-74
2022/03/28 07:27:28;;;;;;;20.60;10.43;;;384.30;1075.20;;;;;;4980265;28;20028;-75
2022/03/28 07:29:53;;;;;;;21.40;13.48;;;384.50;1100.80;;;;;;4965314;28;20791;-83
2022/03/28 07:32:19;;;;;;;23.30;10.85;;;384.80;1075.20;;;;;;4980647;28;20045;-75
2022/03/28 07:34:46;;;;;;;16.55;9.60;;;409.70;1100.80;;;;;;4965344;28;20089;-75
2022/03/28 07:37:13;;;;;;;17.67;9.15;;;410.10;1100.80;;;;;;4973271;28;20046;-75
2022/03/28 07:39:40;;;;;;;21.50;11.70;;;410.00;1075.20;;;;;;4985410;28;20109;-72
2022/03/28 07:42:11;;;;;;;24.73;11.88;;;409.90;1075.20;;;;;;4980698;28;20491;-75
2022/03/28 07:44:37;;;;;;;20.77;10.48;;;410.20;1075.20;;;;;;4974276;28;20042;-82
2022/03/28 07:47:05;;;;;;;22.30;9.90;;;435.20;1075.20;;;;;;4966493;28;20027;-73
2022/03/28 07:49:31;;;;;;;19.35;9.98;;;435.40;1049.60;;;;;;4961466;28;20031;-74
2022/03/28 07:51:57;;;;;;;18.27;9.43;;;435.70;1049.60;;;;;;4964936;28;20046;-73
2022/03/28 07:54:23;;;;;;;24.00;11.00;;;435.70;1024.00;;;;;;4975431;28;20037;-75
2022/03/28 07:56:49;;;;;;;16.17;9.63;;;435.80;1024.00;;;;;;4967581;28;20383;-73
2022/03/28 07:59:14;;;;;;;22.40;11.38;;;435.90;998.40;;;;;;4974231;28;20073;-73
2022/03/28 08:01:41;;;;;;;22.05;9.35;;;436.10;1024.00;;;;;;4990383;28;20068;-73
2022/03/28 08:04:07;;;;;;;17.30;9.80;;;436.00;998.40;;;;;;4987296;28;20033;-73
2022/03/28 08:06:32;;;;;;;13.52;8.70;;;460.80;1024.00;;;;;;4984575;28;20030;-73
2022/03/28 08:08:58;;;;;;;16.10;9.50;;;461.00;1024.00;;;;;;4964127;28;20102;-73
2022/03/28 08:11:24;;;;;;;22.30;10.57;;;461.50;998.40;;;;;;4990731;28;20054;-73
2022/03/28 08:13:50;;;;;;;20.92;9.50;;;461.60;998.40;;;;;;4987823;28;20034;-73
2022/03/28 08:16:16;;;;;;;18.85;7.80;;;461.70;998.40;;;;;;4986779;28;20027;-73
2022/03/28 08:18:42;;;;;;;18.13;9.23;;;486.60;972.80;;;;;;4991401;28;20152;-73
2022/03/28 08:21:11;;;;;;;16.70;10.00;;;486.80;972.80;;;;;;4991335;28;20693;-73
2022/03/28 08:23:37;;;;;;;17.23;9.27;;;486.90;947.20;;;;;;5002244;28;20367;-72
2022/03/28 08:26:04;;;;;;;23.13;10.02;;;487.20;947.20;;;;;;5002564;28;20025;-74
2022/03/28 08:28:30;;;;;;;19.05;8.63;;;512.00;921.60;;;;;;4991737;28;20138;-73
2022/03/28 08:30:56;;;;;;;18.30;8.93;;;512.20;921.60;;;;;;4998725;28;20022;-75
2022/03/28 08:33:22;;;;;;;22.50;8.65;;;512.10;921.60;;;;;;5000793;28;20108;-75
2022/03/28 08:35:48;;;;;;;19.10;9.45;;;512.40;896.00;;;;;;4997969;28;20042;-74
2022/03/28 08:38:15;;;;;;;22.10;10.50;;;512.80;896.00;;;;;;4985864;28;20483;-74
2022/03/28 08:40:44;;;;;;;17.05;7.53;;;537.60;896.00;;;;;;4996706;28;20401;-73
2022/03/28 08:43:10;;;;;;;13.68;8.18;;;537.80;896.00;;;;;;4997029;28;20173;-75
2022/03/28 08:45:39;;;;;;;13.30;8.60;;;538.00;896.00;;;;;;4997909;28;20097;-75
2022/03/28 08:48:06;;;;;;;12.00;7.75;;;538.10;844.80;;;;;;4997888;28;20085;-74
2022/03/28 08:50:39;;;;;;;15.50;7.28;;;538.40;844.80;;;;;;4978495;28;20038;-74
2022/03/28 08:53:06;;;;;;;14.50;7.63;;;563.30;844.80;;;;;;5003489;28;20026;-74
2022/03/28 08:55:33;;;;;;;10.68;7.10;;;563.40;844.80;;;;;;4986072;28;20042;-74
2022/03/28 08:57:58;;;;;;;11.68;6.25;;;588.80;844.80;;;;;;5002905;28;20476;-73
2022/03/28 09:00:24;;;;;;;13.82;6.43;;;564.10;819.20;;;;;;5003411;28;20478;-75
2022/03/28 09:02:55;;;;;;;12.88;6.85;;;588.90;819.20;;;;;;5004484;28;20022;-74
2022/03/28 09:05:29;;;;;;;12.70;6.53;;;589.10;793.60;;;;;;4987541;28;20031;-74
2022/03/28 09:07:57;;;;;;;12.13;7.15;;;589.40;793.60;;;;;;5002038;28;20029;-74
2022/03/28 09:10:24;;;;;;;20.00;7.53;;;614.40;768.00;;;;;;5000962;28;20038;-74
2022/03/28 09:13:07;;;;;;;11.30;7.03;;;614.60;768.00;;;;;;5005139;28;20038;-74
2022/03/28 09:15:57;;;;;;;14.10;7.68;;;614.90;742.40;;;;;;4992008;28;20046;-74
2022/03/28 09:18:33;;;;;;;19.67;9.32;;;615.20;716.80;;;;;;5000803;28;20089;-74
2022/03/28 09:21:07;;;;;;;11.48;6.72;;;640.00;716.80;;;;;;5006138;28;20832;-74
2022/03/28 09:23:44;;;;;;;14.80;7.15;;;640.30;742.40;;;;;;4983103;28;20035;-74
2022/03/28 09:26:21;;;;;;;17.35;7.75;;;640.70;716.80;;;;;;4988090;28;20021;-74
2022/03/28 09:28:53;;;;;;;18.77;8.38;;;640.80;716.80;;;;;;5000777;28;20386;-74
2022/03/28 09:31:32;;;;;;;16.17;8.07;;;665.70;716.80;;;;;;5003205;28;20482;-74
2022/03/28 09:34:04;;;;;;;12.90;6.40;;;666.00;716.80;;;;;;5004712;28;20029;-74
2022/03/28 09:36:51;;;;;;;12.57;8.05;;;665.70;716.80;;;;;;5003715;28;20073;-75
2022/03/28 09:39:21;;;;;;;11.00;6.05;;;665.90;716.80;;;;;;4997655;28;20112;-75
2022/03/28 09:41:59;;;;;;;13.55;7.07;;;666.40;716.80;;;;;;4997775;28;20168;-74
2022/03/28 09:44:34;;;;;;;12.57;7.45;;;666.20;691.20;;;;;;4998278;28;20057;-73
2022/03/28 09:47:08;;;;;;;9.50;6.37;;;666.40;691.20;;;;;;4999644;28;20021;-73
2022/03/28 09:49:35;;;;;;;11.68;5.63;;;666.50;691.20;;;;;;5003986;28;20029;-74
2022/03/28 09:52:08;;;;;;;9.73;5.10;;;691.20;691.20;;;;;;4989928;28;20367;-73
2022/03/28 09:55:04;;;;;;;10.23;5.35;;;691.50;665.60;;;;;;4979695;28;20388;-73
2022/03/28 09:57:35;;;;;;;17.15;4.90;;;691.70;640.00;;;;;;5007319;28;20041;-74
2022/03/28 10:00:12;;;;;;;10.73;5.30;;;691.50;640.00;;;;;;4991458;28;20041;-74
2022/03/28 10:02:39;;;;;;;9.82;4.50;;;691.80;640.00;;;;;;5005276;28;20037;-73
2022/03/28 10:05:06;;;;;;;11.55;4.90;;;692.00;614.40;;;;;;5003870;28;20037;-73
2022/03/28 10:07:32;;;;;;;8.25;4.53;;;717.20;640.00;;;;;;4990137;28;20751;-73
2022/03/28 10:09:59;;;;;;;9.10;5.43;;;717.30;614.40;;;;;;5007463;28;20085;-75
2022/03/28 10:12:25;;;;;;;7.93;4.45;;;717.20;614.40;;;;;;5007059;28;20113;-74
2022/03/28 10:14:57;;;;;;;16.02;6.38;;;717.50;614.40;;;;;;4989792;28;20062;-74
2022/03/28 10:17:24;;;;;;;13.75;4.85;;;717.50;614.40;;;;;;4999907;28;20429;-74
2022/03/28 10:19:50;;;;;;;9.15;4.28;;;717.50;614.40;;;;;;5006857;28;20053;-75
2022/03/28 10:22:27;;;;;;;6.47;4.40;;;742.60;614.40;;;;;;4983395;28;20018;-74
2022/03/28 10:24:57;;;;;;;10.20;4.95;;;742.90;614.40;;;;;;5004964;28;20031;-76
2022/03/28 10:27:25;;;;;;;11.23;4.05;;;743.00;588.80;;;;;;5006009;28;20030;-78
2022/03/28 10:29:52;;;;;;;10.60;4.90;;;742.90;588.80;;;;;;4990805;28;20034;-78
2022/03/28 10:32:20;;;;;;;7.00;4.53;;;742.90;614.40;;;;;;5003551;28;20030;-75
2022/03/28 10:34:56;;;;;;;8.63;4.63;;;743.20;588.80;;;;;;4986833;28;20033;-74
2022/03/28 10:37:31;;;;;;;11.02;4.40;;;742.80;588.80;;;;;;5002635;28;20018;-74
2022/03/28 10:40:23;;;;;;;11.00;4.88;;;743.30;588.80;;;;;;4996469;28;20545;-75
2022/03/28 10:43:07;;;;;;;9.75;4.65;;;768.30;588.80;;;;;;4930208;28;20051;-75
2022/03/28 10:45:37;;;;;;;11.40;4.68;;;768.10;588.80;;;;;;4943955;28;20392;-74
2022/03/28 10:48:05;;;;;;;9.07;3.90;;;768.50;588.80;;;;;;4952911;28;20039;-75
2022/03/28 10:50:32;;;;;;;7.72;4.00;;;768.60;588.80;;;;;;4937078;29;20031;-75
2022/03/28 10:53:04;;;;;;;11.65;6.85;;;768.80;588.80;;;;;;4951901;28;20046;-74
2022/03/28 10:55:41;;;;;;;10.85;6.28;;;768.70;563.20;;;;;;4951553;28;20818;-73
2022/03/28 10:58:35;;;;;;;10.57;5.43;;;768.80;588.80;;;;;;4951187;28;20049;-74
2022/03/28 11:01:12;;;;;;;8.52;4.85;;;793.60;614.40;;;;;;4951599;28;20592;-74
2022/03/28 11:03:42;;;;;;;9.60;5.68;;;768.80;588.80;;;;;;4926919;28;20035;-74
2022/03/28 11:06:09;;;;;;;9.68;5.75;;;793.80;614.40;;;;;;4929484;28;20572;-74
2022/03/28 11:08:39;;;;;;;12.05;5.72;;;794.00;588.80;;;;;;4936802;28;20031;-75
2022/03/28 11:11:22;;;;;;;9.88;5.95;;;768.30;588.80;;;;;;4948844;28;20150;-75
2022/03/28 11:14:04;;;;;;;7.60;4.82;;;768.20;588.80;;;;;;4950940;28;20043;-75
2022/03/28 11:16:56;;;;;;;10.07;5.80;;;793.80;588.80;;;;;;4932508;29;20039;-74
2022/03/28 11:19:33;;;;;;;11.65;6.10;;;794.10;588.80;;;;;;4963923;28;20034;-74
2022/03/28 11:22:05;;;;;;;8.60;4.65;;;794.30;563.20;;;;;;5007559;28;20022;-74
2022/03/28 11:24:58;;;;;;;10.40;5.07;;;793.60;614.40;;;;;;5008786;28;20032;-74
2022/03/28 11:27:37;;;;;;;12.90;5.53;;;794.20;588.80;;;;;;5003647;28;20033;-73
2022/03/28 11:30:13;;;;;;;10.30;5.20;;;794.20;614.40;;;;;;4996525;28;20133;-74
2022/03/28 11:32:39;;;;;;;9.73;5.10;;;793.60;588.80;;;;;;4997750;28;20029;-73
2022/03/28 11:35:09;;;;;;;11.77;4.70;;;768.90;563.20;;;;;;4999413;28;20092;-73
2022/03/28 11:37:35;;;;;;;11.23;5.57;;;793.70;588.80;;;;;;4983350;28;20049;-73
2022/03/28 11:40:07;;;;;;;10.93;5.10;;;794.30;588.80;;;;;;5002466;28;20430;-73
2022/03/28 11:42:35;;;;;;;10.00;4.90;;;794.20;563.20;;;;;;4990996;28;20030;-73
2022/03/28 11:45:09;;;;;;;9.38;5.07;;;819.70;537.60;;;;;;4995896;28;20599;-73
2022/03/28 11:47:39;;;;;;;7.95;4.88;;;819.80;537.60;;;;;;4999084;28;20053;-73
2022/03/28 11:50:08;;;;;;;11.70;5.38;;;819.70;537.60;;;;;;5001787;28;20050;-73
2022/03/28 11:52:35;;;;;;;12.98;5.80;;;844.80;563.20;;;;;;4984545;28;20395;-73
2022/03/28 11:55:02;;;;;;;12.93;7.43;;;820.00;563.20;;;;;;5000186;28;20027;-74
2022/03/28 12:00:20;;;;;;;13.25;5.75;;;819.40;563.20;;;;;;4999529;28;20037;-74
2022/03/28 12:02:56;;;;;;;20.42;7.18;;;819.80;537.60;;;;;;5002344;28;20475;-74
2022/03/28 12:05:35;;;;;;;7.32;5.00;;;820.00;563.20;;;;;;4990315;28;20113;-74
2022/03/28 12:08:13;;;;;;;6.45;4.90;;;845.30;563.20;;;;;;5002148;28;20053;-74
2022/03/28 12:10:44;;;;;;;10.35;5.80;;;845.50;563.20;;;;;;4972160;28;20042;-74
2022/03/28 12:13:10;;;;;;;12.15;5.00;;;819.70;537.60;;;;;;4965015;28;20057;-75
2022/03/28 12:15:37;;;;;;;14.15;5.78;;;819.50;537.60;;;;;;4969038;28;20061;-74